Time;durP1;ratioP1;P1;durP2;ratioP2;P2;SDS_P1;SDS_P2;PMS_P1;PMS_P2;Temp;Humidity;BMP_temperature;BMP_pressure;BME280_temperature;BME280_humidity;BME280_pressure;Samples;Min_cycle;Max_cycle;Signal;HPM_P1;HPM_P2
2022/04/13 00:00:38;;;;;;;;;1.00;1.00;;;;;18.40;59.92;100493.28;4913077;28;46015;-83
2022/04/13 00:03:03;;;;;;;;;3.00;3.00;;;;;18.32;60.10;100479.09;4911627;28;45447;-83
2022/04/13 00:05:29;;;;;;;;;2.00;2.00;;;;;18.42;60.55;100490.53;4895365;28;44828;-83
2022/04/13 00:07:55;;;;;;;;;1.00;1.00;;;;;18.47;60.51;100505.69;4897101;28;46884;-84
2022/04/13 00:10:21;;;;;;;;;1.67;1.67;;;;;18.37;60.65;100505.00;4897141;28;44871;-84
2022/04/13 00:12:48;;;;;;;;;2.00;2.00;;;;;18.36;60.55;100499.63;4898425;28;44922;-83
2022/04/13 00:15:13;;;;;;;;;2.00;2.00;;;;;18.37;60.50;100504.13;4914057;28;45394;-84
2022/04/13 00:17:39;;;;;;;;;2.00;2.00;;;;;18.31;60.69;100513.22;4915689;28;45359;-83
2022/04/13 00:20:06;;;;;;;;;4.33;2.00;;;;;18.37;60.90;100514.88;4930899;28;45445;-83
2022/04/13 00:25:54;;;;;;;;;2.67;2.00;;;;;18.25;61.77;100516.03;4915355;28;45347;-84
2022/04/13 00:28:19;;;;;;;;;1.00;1.00;;;;;18.27;61.31;100526.78;4898665;28;46948;-83
2022/04/13 00:30:48;;;;;;;;;6.67;4.67;;;;;18.28;61.25;100525.84;4914707;28;45362;-84
2022/04/13 00:33:16;;;;;;;;;1.00;1.00;;;;;18.11;61.89;100492.09;4897384;28;45539;-84
2022/04/13 00:35:41;;;;;;;;;2.00;2.00;;;;;18.23;62.37;100534.03;4897415;28;45456;-84
2022/04/13 00:38:07;;;;;;;;;3.33;1.33;;;;;18.24;62.14;100522.34;4897532;28;47003;-84
2022/04/13 00:40:36;;;;;;;;;2.00;2.00;;;;;18.29;61.93;100533.00;4914093;28;45429;-83
2022/04/13 00:43:01;;;;;;;;;1.33;1.33;;;;;18.35;62.40;100535.56;4914634;29;45618;-84
2022/04/13 00:45:27;;;;;;;;;2.33;2.00;;;;;18.28;62.11;100531.22;4914667;28;45558;-84
2022/04/13 00:47:54;;;;;;;;;2.00;2.00;;;;;18.42;62.35;100531.84;4897883;28;47127;-84
2022/04/13 00:50:20;;;;;;;;;4.00;3.00;;;;;18.30;62.59;100518.63;4898071;28;45481;-84
2022/04/13 00:52:47;;;;;;;;;2.00;2.00;;;;;18.40;62.44;100531.00;4915043;28;45776;-84
2022/04/13 00:55:15;;;;;;;;;4.00;3.00;;;;;18.44;62.44;100531.78;4898966;28;44808;-84
2022/04/13 00:57:42;;;;;;;;;5.33;2.00;;;;;18.39;62.47;100531.91;4916174;28;45527;-83
2022/04/13 01:00:10;;;;;;;;;2.00;2.00;;;;;18.45;62.69;100534.44;4899641;28;45572;-83
2022/04/13 01:02:36;;;;;;;;;1.00;1.00;;;;;18.36;62.67;100521.19;4917105;28;45417;-83
2022/04/13 01:05:07;;;;;;;;;3.00;3.00;;;;;18.38;62.64;100512.16;4883435;29;45675;-83
2022/04/13 01:07:34;;;;;;;;;2.00;2.00;;;;;18.31;62.50;100521.28;4916598;28;47086;-83
2022/04/13 01:10:05;;;;;;;;;3.67;3.00;;;;;18.26;63.13;100498.06;4899056;28;45710;-82
2022/04/13 01:12:30;;;;;;;;;3.33;2.00;;;;;18.29;63.09;100527.63;4916496;28;45529;-84
2022/04/13 01:14:56;;;;;;;;;2.00;1.33;;;;;18.28;63.03;100528.53;4915508;28;44818;-84
2022/04/13 01:17:22;;;;;;;;;3.33;3.33;;;;;18.25;63.30;100524.09;4899602;28;46726;-83
2022/04/13 01:19:49;;;;;;;;;2.33;2.33;;;;;18.14;63.58;100505.50;4916900;28;45560;-83
2022/04/13 01:22:21;;;;;;;;;3.00;2.00;;;;;18.41;63.31;100527.38;4897226;28;44825;-83
2022/04/13 01:24:49;;;;;;;;;5.33;3.33;;;;;18.22;63.84;100525.97;4899620;28;45004;-82
2022/04/13 01:27:15;;;;;;;;;2.00;1.00;;;;;18.18;64.29;100531.44;4915609;28;45537;-85
2022/04/13 01:29:45;;;;;;;;;3.67;2.67;;;;;18.14;63.86;100542.31;4898784;28;45354;-84
2022/04/13 01:32:12;;;;;;;;;4.67;3.00;;;;;18.12;64.62;100536.06;4917621;28;45434;-83
2022/04/13 01:34:46;;;;;;;;;4.67;2.00;;;;;18.17;64.27;100543.09;4898548;29;44913;-83
2022/04/13 01:37:12;;;;;;;;;2.33;1.00;;;;;18.03;65.03;100550.56;4898464;28;47057;-83
2022/04/13 01:39:37;;;;;;;;;2.00;2.00;;;;;18.01;65.32;100538.94;4896367;29;45580;-83
2022/04/13 01:42:03;;;;;;;;;2.67;2.00;;;;;18.02;65.17;100555.97;4897370;28;45468;-83
2022/04/13 01:44:29;;;;;;;;;4.00;3.67;;;;;17.90;65.78;100541.88;4897211;28;45775;-84
2022/04/13 01:48:01;;;;;;;;;3.00;3.00;;;;;18.13;65.16;100554.84;4914005;28;45726;-84
2022/04/13 01:50:32;;;;;;;;;3.67;3.00;;;;;18.13;65.18;100554.84;4914717;28;45481;-83
2022/04/13 01:52:58;;;;;;;;;2.00;2.00;;;;;17.95;65.90;100553.41;4898370;28;45375;-83
2022/04/13 01:55:23;;;;;;;;;1.67;1.67;;;;;17.96;65.46;100548.94;4897366;28;45430;-83
2022/04/13 01:57:49;;;;;;;;;4.00;3.67;;;;;17.97;65.71;100550.69;4897175;29;46656;-83
2022/04/13 02:00:14;;;;;;;;;4.00;2.67;;;;;18.05;65.67;100556.81;4896124;28;44844;-84
2022/04/13 02:02:40;;;;;;;;;3.00;3.00;;;;;18.10;65.12;100562.13;4896652;29;45363;-84
2022/04/13 02:05:06;;;;;;;;;1.00;1.00;;;;;18.15;65.36;100563.78;4897651;28;45573;-83
2022/04/13 02:07:32;;;;;;;;;2.00;2.00;;;;;18.12;65.38;100565.66;4915007;28;45793;-83
2022/04/13 02:09:58;;;;;;;;;4.33;1.67;;;;;17.92;65.48;100528.38;4898555;28;45499;-83
2022/04/13 02:12:23;;;;;;;;;3.00;2.67;;;;;18.05;65.29;100543.34;4898119;28;45469;-84
2022/04/13 02:14:49;;;;;;;;;2.33;2.33;;;;;18.10;64.93;100548.66;4898054;29;45661;-83
2022/04/13 02:17:16;;;;;;;;;5.00;2.00;;;;;18.18;65.67;100579.88;4915108;28;46199;-83
2022/04/13 02:19:43;;;;;;;;;2.33;2.33;;;;;18.18;65.86;100576.31;4914760;28;45409;-83
2022/04/13 02:22:10;;;;;;;;;2.00;2.00;;;;;18.00;66.16;100547.97;4897609;29;45426;-83
2022/04/13 02:24:36;;;;;;;;;3.33;2.67;;;;;17.89;67.49;100542.75;4899076;28;44952;-84
2022/04/13 02:27:02;;;;;;;;;3.67;3.00;;;;;18.08;67.95;100567.53;4898587;28;46696;-84
2022/04/13 02:29:28;;;;;;;;;4.00;4.00;;;;;17.97;68.49;100565.03;4898334;28;44817;-83
2022/04/13 02:31:55;;;;;;;;;3.67;3.33;;;;;18.22;69.57;100586.09;4899039;28;45446;-83
2022/04/13 02:34:20;;;;;;;;;4.33;3.67;;;;;17.93;70.96;100568.69;4898404;28;45282;-83
2022/04/13 02:36:45;;;;;;;;;4.33;3.33;;;;;17.89;71.73;100569.66;4914852;28;45349;-84
2022/04/13 02:39:12;;;;;;;;;3.00;3.00;;;;;18.07;72.45;100591.78;4896730;29;45359;-84
2022/04/13 02:41:40;;;;;;;;;4.67;3.67;;;;;17.96;73.63;100573.16;4912177;28;45355;-84
2022/04/13 02:47:48;;;;;;;;;2.00;2.00;;;;;17.81;74.19;100593.09;4913365;28;44877;-84
2022/04/13 02:50:20;;;;;;;;;3.33;3.33;;;;;17.93;74.69;100594.72;4895869;28;45403;-84
2022/04/13 02:52:45;;;;;;;;;3.00;3.00;;;;;17.77;74.97;100586.91;4897151;28;45571;-83
2022/04/13 02:55:12;;;;;;;;;6.00;5.67;;;;;17.84;74.62;100587.72;4899308;28;45359;-83
2022/04/13 02:57:40;;;;;;;;;4.00;4.00;;;;;17.88;74.76;100573.28;4915306;28;46997;-83
2022/04/13 03:00:07;;;;;;;;;6.33;3.00;;;;;17.77;75.82;100580.63;4899385;28;45474;-83
2022/04/13 03:02:34;;;;;;;;;4.00;4.00;;;;;17.80;76.68;100580.59;4915075;28;45378;-84
2022/04/13 03:04:59;;;;;;;;;6.00;4.00;;;;;17.79;76.16;100581.47;4898405;28;45498;-84
2022/04/13 03:07:28;;;;;;;;;4.00;4.00;;;;;17.79;76.06;100587.78;4914221;28;46010;-84
2022/04/13 03:09:53;;;;;;;;;4.00;4.00;;;;;17.64;75.91;100563.84;4915757;29;45432;-84
2022/04/13 03:12:19;;;;;;;;;3.00;3.00;;;;;17.75;76.20;100590.53;4897964;28;45402;-84
2022/04/13 03:14:47;;;;;;;;;6.00;6.00;;;;;17.83;76.38;100591.31;4900154;28;45300;-83
2022/04/13 03:17:13;;;;;;;;;6.00;4.33;;;;;17.63;77.19;100593.44;4900095;28;47153;-83
2022/04/13 03:19:38;;;;;;;;;3.33;3.33;;;;;17.61;77.65;100593.44;4899260;28;58938;-84
2022/04/13 03:22:04;;;;;;;;;5.67;5.00;;;;;17.64;78.57;100609.56;4914653;28;45517;-83
2022/04/13 03:24:30;;;;;;;;;5.67;5.67;;;;;17.53;79.87;100599.00;4913956;29;45536;-83
2022/04/13 03:26:57;;;;;;;;;7.00;4.00;;;;;17.55;82.04;100612.38;4914193;28;45484;-84
2022/04/13 03:29:22;;;;;;;;;6.00;6.00;;;;;17.43;81.32;100620.66;4894625;28;45225;-83
2022/04/13 03:31:48;;;;;;;;;6.67;6.00;;;;;17.29;81.71;100605.66;4894300;29;44819;-83
2022/04/13 03:34:13;;;;;;;;;6.67;5.00;;;;;17.39;81.87;100625.19;4893529;29;44934;-85
2022/04/13 03:36:39;;;;;;;;;5.00;5.00;;;;;17.26;82.03;100603.00;4892481;28;47704;-83
2022/04/13 03:39:08;;;;;;;;;6.33;5.33;;;;;17.47;82.01;100627.75;4877537;29;45558;-84
2022/04/13 03:41:37;;;;;;;;;5.67;5.67;;;;;17.46;82.59;100609.88;4894633;29;45497;-84
2022/04/13 03:44:14;;;;;;;;;7.00;7.00;;;;;17.49;82.44;100607.09;4894558;29;45457;-83
2022/04/13 03:46:40;;;;;;;;;7.00;5.00;;;;;17.57;83.27;100634.75;4894473;29;45455;-84
2022/04/13 03:49:07;;;;;;;;;5.33;5.33;;;;;17.52;83.09;100621.41;4893805;29;45433;-84
2022/04/13 03:51:34;;;;;;;;;6.33;5.33;;;;;17.58;82.52;100621.28;4879674;29;45252;-84
2022/04/13 03:54:00;;;;;;;;;6.33;6.33;;;;;17.33;82.49;100602.00;4881632;29;45848;-84
2022/04/13 03:56:31;;;;;;;;;6.00;4.67;;;;;17.64;83.17;100636.44;4880330;29;48086;-83
2022/04/13 03:58:57;;;;;;;;;8.67;7.33;;;;;17.54;83.13;100643.78;4896040;29;45574;-83
2022/04/13 04:01:32;;;;;;;;;6.00;6.00;;;;;17.43;83.92;100628.72;4896061;29;45354;-85
2022/04/13 04:04:53;;;;;;;;;7.00;7.00;;;;;17.69;84.40;100650.69;4879181;29;45886;-83
2022/04/13 04:07:19;;;;;;;;;7.67;5.67;;;;;17.52;85.45;100653.66;4898152;29;47926;-85
2022/04/13 04:09:45;;;;;;;;;6.67;6.00;;;;;17.53;86.43;100647.38;4897766;29;45466;-83
2022/04/13 04:12:10;;;;;;;;;8.67;8.00;;;;;17.51;85.02;100645.63;4881434;29;45243;-84
2022/04/13 04:14:36;;;;;;;;;7.00;6.33;;;;;17.55;85.98;100650.03;4898530;29;45423;-85
2022/04/13 04:17:57;;;;;;;;;9.33;9.33;;;;;17.73;85.34;100655.13;4898146;29;46746;-84
2022/04/13 04:20:22;;;;;;;;;7.33;7.33;;;;;17.50;85.60;100651.91;4898349;29;45435;-84
2022/04/13 04:22:48;;;;;;;;;8.00;8.00;;;;;17.53;86.80;100662.59;4897643;29;45462;-84
2022/04/13 04:25:14;;;;;;;;;8.67;7.00;;;;;17.46;88.14;100652.88;4881962;29;44869;-83
2022/04/13 04:27:39;;;;;;;;;7.33;7.33;;;;;17.55;87.86;100663.47;4897917;29;45512;-84
2022/04/13 04:30:06;;;;;;;;;8.33;7.67;;;;;17.53;88.71;100663.53;4879948;29;45720;-85
2022/04/13 04:32:32;;;;;;;;;8.67;7.33;;;;;17.54;87.92;100664.41;4896507;29;45434;-83
2022/04/13 04:34:57;;;;;;;;;4.33;4.33;;;;;17.47;89.49;100652.88;4897647;29;45922;-84
2022/04/13 04:37:23;;;;;;;;;6.33;5.33;;;;;17.48;88.98;100662.69;4894591;29;46819;-85
2022/04/13 04:39:48;;;;;;;;;8.00;8.00;;;;;17.50;90.38;100660.88;4878556;29;45576;-83
2022/04/13 04:42:14;;;;;;;;;7.00;5.00;;;;;17.44;89.33;100657.41;4896576;29;45690;-83
2022/04/13 04:44:39;;;;;;;;;8.67;8.67;;;;;17.34;89.57;100654.84;4895237;29;45458;-84
2022/04/13 04:47:15;;;;;;;;;9.67;6.67;;;;;17.63;88.50;100685.75;4868103;29;48039;-84
2022/04/13 04:49:40;;;;;;;;;6.00;6.00;;;;;17.27;89.93;100649.56;4877805;29;45574;-83
2022/04/13 04:52:06;;;;;;;;;7.00;6.00;;;;;17.50;90.30;100686.88;4878532;29;45746;-85
2022/04/13 04:57:54;;;;;;;;;8.33;8.00;;;;;17.38;91.22;100664.63;4879960;29;45153;-84
2022/04/13 05:00:21;;;;;;;;;9.00;9.00;;;;;17.48;91.40;100664.50;4879269;29;44948;-84
2022/04/13 05:02:48;;;;;;;;;8.67;8.33;;;;;17.51;90.88;100677.88;4880397;29;45441;-83
2022/04/13 05:05:14;;;;;;;;;8.00;8.00;;;;;17.49;90.44;100675.25;4880783;29;45428;-83
2022/04/13 05:07:40;;;;;;;;;12.00;9.00;;;;;17.48;90.47;100676.13;4877016;29;46945;-85
2022/04/13 05:10:07;;;;;;;;;8.33;8.33;;;;;17.45;89.83;100678.88;4861161;29;45502;-85
2022/04/13 05:12:45;;;;;;;;;9.67;8.33;;;;;17.55;90.32;100691.28;4862524;29;45553;-83
2022/04/13 05:15:12;;;;;;;;;9.67;8.67;;;;;17.28;90.26;100659.41;4864357;29;45632;-83
2022/04/13 05:17:43;;;;;;;;;10.00;8.33;;;;;17.26;91.38;100667.50;4863374;29;46523;-84
2022/04/13 05:20:11;;;;;;;;;11.00;11.00;;;;;17.26;91.57;100654.06;4878633;29;45451;-83
2022/04/13 05:22:39;;;;;;;;;12.00;9.33;;;;;17.23;92.39;100651.44;4879768;29;45477;-82
2022/04/13 05:25:10;;;;;;;;;9.00;8.00;;;;;17.18;93.01;100655.97;4862271;29;45502;-84
2022/04/13 05:27:36;;;;;;;;;12.67;11.33;;;;;17.14;92.85;100678.44;4880280;29;45212;-84
2022/04/13 05:30:04;;;;;;;;;13.33;12.00;;;;;16.99;93.62;100642.81;4861906;29;45535;-84
2022/04/13 05:32:31;;;;;;;;;13.00;12.67;;;;;16.81;95.72;100635.00;4876598;29;45553;-84
2022/04/13 05:35:03;;;;;;;;;12.00;11.00;;;;;17.00;95.54;100654.44;4878554;29;44824;-84
2022/04/13 05:37:29;;;;;;;;;14.00;12.00;;;;;16.71;94.82;100636.00;4859735;29;45426;-84
2022/04/13 05:39:56;;;;;;;;;11.00;9.33;;;;;17.00;96.20;100681.31;4870093;29;45440;-84
2022/04/13 05:42:26;;;;;;;;;9.33;9.33;;;;;16.94;96.99;100684.94;4881784;29;44878;-83
2022/04/13 05:44:52;;;;;;;;;12.00;11.33;;;;;16.75;97.70;100659.22;4880642;29;45455;-83
2022/04/13 05:47:18;;;;;;;;;11.67;9.00;;;;;16.90;97.76;100676.97;4909097;28;45376;-84
2022/04/13 05:49:44;;;;;;;;;15.67;12.00;;;;;16.97;99.57;100692.97;4916784;28;45156;-84
2022/04/13 05:52:10;;;;;;;;;11.33;9.00;;;;;16.94;99.88;100694.81;4899035;28;45540;-83
2022/04/13 05:58:02;;;;;;;;;9.00;9.00;;;;;16.91;99.52;100703.81;4914416;28;45084;-83
2022/04/13 06:00:27;;;;;;;;;11.00;11.00;;;;;16.68;99.56;100687.94;4897755;28;45849;-84
2022/04/13 06:02:53;;;;;;;;;13.33;12.00;;;;;16.81;100.00;100718.25;4897165;28;45463;-83
2022/04/13 06:05:24;;;;;;;;;13.00;13.00;;;;;16.71;99.47;100687.91;4897193;28;45845;-83
2022/04/13 06:11:12;;;;;;;;;14.67;13.67;;;;;16.83;99.28;100705.72;4915213;28;45476;-84
2022/04/13 06:13:38;;;;;;;;;16.33;15.00;;;;;16.98;100.00;100742.22;4899460;28;45387;-83
2022/04/13 06:16:04;;;;;;;;;13.67;12.67;;;;;16.73;100.00;100704.00;4898622;28;45375;-83
2022/04/13 06:18:30;;;;;;;;;12.33;12.00;;;;;16.96;100.00;100752.97;4898257;28;47242;-84
2022/04/13 06:24:17;;;;;;;;;12.67;11.33;;;;;16.96;99.12;100752.09;4915275;28;45322;-84
2022/04/13 06:26:45;;;;;;;;;11.00;11.00;;;;;17.13;98.85;100760.84;4914738;28;44845;-83
2022/04/13 06:29:11;;;;;;;;;19.33;16.67;;;;;17.03;98.81;100758.28;4897238;28;47131;-84
2022/04/13 06:31:39;;;;;;;;;15.00;14.67;;;;;17.03;99.26;100760.97;4898915;28;45421;-85
2022/04/13 06:34:07;;;;;;;;;14.67;13.33;;;;;17.10;99.03;100758.19;4897296;28;44977;-84
2022/04/13 06:36:34;;;;;;;;;11.67;9.67;;;;;16.99;98.72;100761.03;4897203;28;45319;-84
2022/04/13 06:39:02;;;;;;;;;13.33;13.33;;;;;17.10;98.21;100778.81;4897540;28;46738;-85
2022/04/13 06:41:31;;;;;;;;;9.67;9.67;;;;;17.05;97.85;100759.16;4898229;28;45500;-85
2022/04/13 06:44:31;;;;;;;;;14.33;12.67;;;;;17.41;97.53;100795.44;4898269;28;44841;-84
2022/04/13 06:46:58;;;;;;;;;8.67;8.33;;;;;17.06;97.67;100759.13;4914474;28;45376;-83
2022/04/13 06:49:48;;;;;;;;;16.00;14.00;;;;;17.46;97.39;100788.19;4914279;28;45164;-86
2022/04/13 06:52:14;;;;;;;;;17.00;12.67;;;;;17.49;97.32;100808.75;4881460;29;45690;-84
2022/04/13 06:54:41;;;;;;;;;15.00;14.33;;;;;17.43;96.84;100788.25;4897818;28;45378;-83
2022/04/13 06:57:17;;;;;;;;;12.00;11.67;;;;;17.58;96.34;100824.78;4901057;28;44863;-84
2022/04/13 07:03:00;;;;;;;;;;;;;;;;;;;;;
2022/04/13 07:05:40;;;;;;;;;12.33;12.33;;;;;17.53;95.64;100797.06;4914555;28;67505;-84
2022/04/13 07:08:13;;;;;;;;;14.33;13.67;;;;;17.52;95.60;100803.38;4892859;29;45301;-82
2022/04/13 07:10:38;;;;;;;;;15.00;15.00;;;;;17.67;95.46;100854.22;4915462;28;45337;-83
2022/04/13 07:13:07;;;;;;;;;17.67;15.67;;;;;17.71;95.76;100841.63;4917117;29;45365;-83
2022/04/13 07:16:34;;;;;;;;;;;;;;;;;;;;;
2022/04/13 07:35:47;;;;;;;;;14.33;13.00;;;;;17.52;95.41;100835.63;4492467;26;45437;-82
2022/04/13 07:38:14;;;;;;;;;12.33;12.33;;;;;17.82;95.55;100882.75;4915354;28;45884;-84
2022/04/13 07:40:44;;;;;;;;;13.33;13.00;;;;;17.79;95.94;100856.78;4919285;28;45553;-84
2022/04/13 07:43:16;;;;;;;;;16.33;14.33;;;;;17.93;96.28;100877.25;4934807;28;45598;-84
2022/04/13 07:46:25;;;;;;;;;;;;;;;;;;;;;
2022/04/13 07:49:39;;;;;;;;;14.00;13.00;;;;;18.11;94.72;100885.03;4923687;28;68342;-84
2022/04/13 07:52:11;;;;;;;;;17.67;16.00;;;;;17.88;95.17;100836.97;4874888;29;44902;-83
2022/04/13 07:54:40;;;;;;;;;15.00;15.00;;;;;18.15;95.44;100884.09;4869747;29;46320;-83
2022/04/13 07:57:11;;;;;;;;;14.67;14.67;;;;;18.10;94.83;100882.41;4861518;29;45628;-84
2022/04/13 07:59:37;;;;;;;;;16.00;16.00;;;;;18.13;94.78;100880.53;4892621;28;45694;-85
2022/04/13 08:23:34;;;;;;;;;20.00;18.00;;;;;18.27;93.46;100895.59;4910332;28;44729;-83
2022/04/13 08:26:11;;;;;;;;;20.67;19.00;;;;;18.14;92.92;100892.22;4925049;28;45471;-84
2022/04/13 08:28:38;;;;;;;;;17.33;17.33;;;;;18.04;93.79;100883.38;4935200;28;45675;-83
2022/04/13 08:38:03;;;;;;;;;18.67;18.33;;;;;17.79;93.13;100847.81;4914988;28;45502;-82
2022/04/13 08:40:55;;;;;;;;;39.33;32.33;;;;;18.06;93.52;100869.91;4886082;29;46782;-82
2022/04/13 08:43:52;;;;;;;;;51.00;42.50;;;;;18.27;92.88;100895.59;4915488;28;45551;-81
2022/04/13 08:46:37;;;;;;;;;29.33;27.67;;;;;18.23;92.55;100883.09;4915105;28;45000;-83
2022/04/13 08:49:13;;;;;;;;;25.33;25.00;;;;;18.25;92.59;100889.34;4903142;28;44874;-82
2022/04/13 08:51:40;;;;;;;;;20.00;20.00;;;;;18.22;93.19;100884.91;4915997;28;45781;-82
2022/04/13 08:54:37;;;;;;;;;24.67;22.33;;;;;18.34;92.93;100875.72;4915950;28;44859;-83
2022/04/13 08:57:20;;;;;;;;;23.33;20.00;;;;;18.52;92.51;100907.78;4904089;28;45540;-82
2022/04/13 09:00:02;;;;;;;;;19.67;19.67;;;;;18.74;91.81;100940.63;4896189;29;44948;-82
2022/04/13 09:10:12;;;;;;;;;;;;;;;;;;;;;
2022/04/13 09:12:39;;;;;;;;;16.67;15.67;;;;;18.46;90.99;100929.41;4920682;28;65054;-83
2022/04/13 09:15:20;;;;;;;;;14.00;14.00;;;;;18.56;91.43;100939.13;4921125;28;45585;-84
2022/04/13 09:18:26;;;;;;;;;15.00;14.00;;;;;18.63;92.06;100955.19;4936612;28;44817;-85
2022/04/13 09:21:07;;;;;;;;;11.33;11.33;;;;;18.66;91.68;100953.31;4940149;28;45000;-81
2022/04/13 09:23:33;;;;;;;;;12.67;12.67;;;;;18.58;91.74;100957.94;4935634;28;44855;-81
2022/04/13 09:26:19;;;;;;;;;3.67;3.67;;;;;18.45;91.06;100907.88;4938099;28;46833;-82
2022/04/13 09:28:53;;;;;;;;;13.33;10.67;;;;;18.51;91.11;100921.25;4934928;28;44732;-82
2022/04/13 09:31:20;;;;;;;;;15.33;13.33;;;;;18.44;91.47;100931.25;4932819;28;45823;-83
2022/04/13 09:33:46;;;;;;;;;15.00;15.00;;;;;18.69;91.10;100968.56;4951399;28;45349;-83
2022/04/13 09:36:18;;;;;;;;;14.67;14.67;;;;;18.64;89.88;100949.75;4935510;28;45393;-81
2022/04/13 09:38:52;;;;;;;;;15.67;15.67;;;;;18.62;90.55;100953.41;4933910;28;45408;-81
2022/04/13 09:41:18;;;;;;;;;14.67;13.67;;;;;18.71;91.14;100988.28;4935320;28;45447;-81
2022/04/13 09:43:56;;;;;;;;;14.33;14.33;;;;;18.87;91.29;100981.78;4936810;28;45391;-82
2022/04/13 09:46:30;;;;;;;;;13.00;12.67;;;;;19.03;90.64;100987.81;4945692;28;45257;-81
2022/04/13 09:49:20;;;;;;;;;17.00;17.00;;;;;19.27;89.15;100988.25;4948214;28;45443;-82
2022/04/13 09:51:51;;;;;;;;;15.67;15.67;;;;;19.07;88.68;100941.00;4936982;28;45587;-84
2022/04/13 09:54:29;;;;;;;;;17.33;16.33;;;;;19.11;88.29;100955.31;4955839;28;45408;-83
2022/04/13 09:57:07;;;;;;;;;14.67;13.67;;;;;19.07;88.30;100972.47;4954619;28;45541;-82
2022/04/13 09:59:33;;;;;;;;;11.33;11.33;;;;;19.11;88.10;100983.16;4928338;28;45317;-82
2022/04/13 10:02:00;;;;;;;;;21.67;18.67;;;;;19.11;88.75;100971.50;4936929;28;45422;-82
2022/04/13 10:04:36;;;;;;;;;17.33;16.33;;;;;19.23;89.42;100986.53;4918297;28;45342;-82
2022/04/13 10:07:39;;;;;;;;;18.00;14.67;;;;;19.32;88.65;100989.09;4946775;28;45663;-84
2022/04/13 10:10:35;;;;;;;;;;;;;;;;;;;;;
2022/04/13 10:13:32;;;;;;;;;15.33;15.33;;;;;19.39;87.89;101001.56;4833894;29;67915;-84
2022/04/13 10:16:01;;;;;;;;;12.00;12.00;;;;;19.26;88.30;100955.03;4831468;29;45516;-83
2022/04/13 10:19:05;;;;;;;;;14.67;14.67;;;;;19.78;87.27;100991.84;4839162;29;45601;-83
2022/04/13 10:21:47;;;;;;;;;;;;;;;;;;;;;
2022/04/13 10:24:18;;;;;;;;;9.00;9.00;;;;;20.15;84.58;100996.47;4839357;29;68363;-84
2022/04/13 10:27:12;;;;;;;;;7.33;7.00;;;;;20.04;82.56;100959.84;4832889;29;45456;-83
2022/04/13 10:30:08;;;;;;;;;10.67;6.67;;;;;20.34;83.05;100999.66;4833035;29;46852;-85
2022/04/13 10:32:35;;;;;;;;;8.00;8.00;;;;;20.08;82.85;100956.16;4824254;29;45549;-81
2022/04/13 10:35:04;;;;;;;;;12.67;11.00;;;;;20.26;82.84;100960.22;4835463;29;44917;-81
2022/04/13 10:37:33;;;;;;;;;7.33;7.33;;;;;20.57;82.20;100987.44;4841559;29;45433;-82
2022/04/13 10:43:20;;;;;;;;;10.67;10.67;;;;;20.76;79.99;100982.50;4761471;29;44973;-83
2022/04/13 10:46:14;;;;;;;;;9.00;9.00;;;;;20.95;78.54;100994.66;4807812;29;45536;-82
2022/04/13 10:48:49;;;;;;;;;9.67;9.67;;;;;20.65;78.43;100962.97;4833874;29;45014;-82
2022/04/13 10:54:15;;;;;;;;;8.33;6.33;;;;;21.17;77.37;101000.41;4939865;23;44834;-84
2022/04/13 10:57:00;;;;;;;;;;;;;;;;;;;;;
2022/04/13 11:07:42;;;;;;;;;9.33;9.33;;;;;20.87;75.06;100968.75;5038933;23;45470;-83
2022/04/13 11:11:19;;;;;;;;;;;;;;;;;;;;;
2022/04/13 11:13:52;;;;;;;;;5.67;5.67;;;;;21.09;74.52;100990.72;4810908;29;74439;-84
2022/04/13 11:16:38;;;;;;;;;10.67;10.33;;;;;21.10;74.47;100992.50;4808273;29;44952;-84
2022/04/13 11:19:35;;;;;;;;;6.00;6.00;;;;;20.88;74.17;100971.38;4837546;29;44931;-83
2022/04/13 11:22:06;;;;;;;;;7.00;7.00;;;;;20.82;75.22;101000.41;4854167;29;45546;-81
2022/04/13 11:24:36;;;;;;;;;6.00;4.67;;;;;20.85;75.57;100960.66;4875142;29;45458;-83
2022/04/13 11:30:24;;;;;;;;;4.00;4.00;;;;;20.78;74.48;100967.13;4876239;29;45410;-84
2022/04/13 11:33:24;;;;;;;;;6.67;6.67;;;;;20.91;74.02;100938.88;4862462;29;44800;-85
2022/04/13 11:35:59;;;;;;;;;4.00;4.00;;;;;21.17;72.11;100978.78;4869486;29;45382;-85
2022/04/13 11:41:07;;;;;;;;;6.33;5.33;;;;;21.01;72.65;100946.78;4912702;27;45697;-81
2022/04/13 11:43:54;;;;;;;;;4.33;4.33;;;;;21.36;72.53;100981.88;4901010;29;44943;-83
2022/04/13 11:47:27;;;;;;;;;6.00;5.33;;;;;21.64;70.73;100989.28;4932318;28;47300;-86
2022/04/13 12:08:47;;;;;;;;;4.00;4.00;;;;;21.36;69.39;100957.50;4250884;26;45290;-84
2022/04/13 12:11:21;;;;;;;;;4.67;4.67;;;;;21.49;69.50;100985.19;4914561;28;46829;-84
2022/04/13 12:13:58;;;;;;;;;5.00;5.00;;;;;21.47;69.49;100995.16;4934652;28;45439;-83
2022/04/13 12:16:33;;;;;;;;;4.00;4.00;;;;;21.46;69.91;100987.06;4901133;29;45465;-85
2022/04/13 12:19:17;;;;;;;;;4.00;4.00;;;;;21.70;69.13;101010.75;4902127;28;45347;-80
2022/04/13 12:21:49;;;;;;;;;2.00;2.00;;;;;21.45;68.89;100969.03;4916054;28;47696;-83
2022/04/13 12:24:14;;;;;;;;;1.67;1.67;;;;;21.36;68.18;100970.16;4938890;28;44978;-82
2022/04/13 12:26:45;;;;;;;;;4.00;4.00;;;;;21.75;67.33;101006.13;4931010;28;45010;-81
2022/04/13 12:29:25;;;;;;;;;4.33;4.33;;;;;21.74;68.43;101016.97;4933469;28;45737;-81
2022/04/13 12:31:53;;;;;;;;;5.67;4.33;;;;;21.59;67.28;101007.44;4915761;28;45626;-82
2022/04/13 12:34:23;;;;;;;;;10.00;7.00;;;;;21.60;68.19;101009.22;4916711;28;45505;-83
2022/04/13 12:37:00;;;;;;;;;7.33;7.33;;;;;21.64;67.75;101015.47;4924730;28;45591;-81
2022/04/13 12:39:27;;;;;;;;;6.00;6.00;;;;;21.58;68.23;101019.22;4911166;28;45502;-83
2022/04/13 12:42:01;;;;;;;;;5.00;4.00;;;;;21.57;66.49;100993.06;4925197;28;45791;-82
2022/04/13 12:44:27;;;;;;;;;3.33;3.33;;;;;21.44;67.22;101024.13;4915627;28;45407;-81
2022/04/13 12:47:22;;;;;;;;;2.00;2.00;;;;;21.26;67.50;100993.88;4933130;28;45451;-83
2022/04/13 12:53:12;;;;;;;;;3.33;3.33;;;;;21.10;67.45;100996.06;4927194;28;45270;-82
2022/04/13 12:55:58;;;;;;;;;4.33;4.33;;;;;21.30;67.05;101038.84;4867864;29;44823;-82
2022/04/13 12:59:14;;;;;;;;;8.33;7.00;;;;;20.88;69.13;100987.59;4852644;29;45406;-82
2022/04/13 13:01:48;;;;;;;;;5.67;4.67;;;;;20.97;69.56;101033.34;4797059;29;46004;-82
2022/04/13 13:04:21;;;;;;;;;5.33;5.33;;;;;20.84;70.47;101036.38;4804063;29;47226;-81
2022/04/13 13:07:00;;;;;;;;;3.33;3.33;;;;;21.01;70.71;101041.41;4804528;29;45424;-82
2022/04/13 13:13:21;;;;;;;;;5.00;5.00;;;;;21.10;69.81;100993.38;4822913;29;45409;-81
2022/04/13 13:15:58;;;;;;;;;4.67;4.67;;;;;21.37;69.60;101035.06;4799836;29;46947;-84
2022/04/13 13:18:34;;;;;;;;;5.00;5.00;;;;;21.12;70.05;101001.44;4859292;29;45640;-82
2022/04/13 13:21:43;;;;;;;;;6.67;5.67;;;;;21.71;69.08;101047.75;4892641;29;44889;-83
2022/04/13 13:24:25;;;;;;;;;4.00;4.00;;;;;21.78;67.13;101046.63;4859933;29;46018;-81
2022/04/13 13:27:12;;;;;;;;;3.00;2.00;;;;;21.56;67.86;100999.44;4915605;28;47183;-83
2022/04/13 13:30:21;;;;;;;;;4.00;4.00;;;;;21.96;67.23;101049.75;4909537;29;45935;-80
2022/04/13 13:40:12;;;;;;;;;5.00;5.00;;;;;22.03;64.30;101048.63;4926581;28;44938;-80
2022/04/13 13:42:50;;;;;;;;;4.00;4.00;;;;;21.80;65.56;101000.56;4918474;28;44925;-82
2022/04/13 13:45:34;;;;;;;;;4.33;4.33;;;;;22.10;66.38;101012.34;4913463;28;45703;-84
2022/04/13 13:48:13;;;;;;;;;4.00;4.00;;;;;22.34;65.94;101028.84;4901842;28;45666;-82
2022/04/13 13:50:44;;;;;;;;;3.00;3.00;;;;;22.60;64.77;101005.44;4928102;28;45320;-83
2022/04/13 13:57:43;;;;;;;;;;;;;;;;;;;;;
2022/04/13 14:11:37;;;;;;;;;2.33;2.00;;;;;24.44;57.96;100971.78;4817450;29;45740;-83
2022/04/13 14:14:26;;;;;;;;;;;;;;;;;;;;;
2022/04/13 14:40:46;;;;;;;;;;;;;;;;;;;;;
2022/04/13 14:43:22;;;;;;;;;3.00;3.00;;;;;26.05;51.67;100974.88;4950152;28;68047;-82
2022/04/13 14:46:03;;;;;;;;;1.67;1.67;;;;;26.18;50.99;100967.03;4948617;28;44977;-83
2022/04/13 14:58:58;;;;;;;;;1.33;1.33;;;;;24.65;51.83;100982.75;4890951;29;44942;-85
2022/04/13 15:02:05;;;;;;;;;2.67;2.67;;;;;24.59;52.25;100969.41;4897921;29;46769;-82
2022/04/13 15:09:02;;;;;;;;;;;;;;;;;;;;;